Time;durP1;ratioP1;P1;durP2;ratioP2;P2;SDS_P1;SDS_P2;PMS_P1;PMS_P2;Temp;Humidity;BMP_temperature;BMP_pressure;BME280_temperature;BME280_humidity;BME280_pressure;Samples;Min_cycle;Max_cycle;Signal;HPM_P1;HPM_P2
2021/07/11 00:00:38;;;;;;;4.57;4.00;;;;;;;;;;5046291;28;20174;-75
2021/07/11 00:03:22;;;;;;;4.50;3.45;;;;;;;;;;5042716;28;20048;-75
2021/07/11 00:06:07;;;;;;;4.75;3.78;;;;;;;;;;5061739;28;20513;-75
2021/07/11 00:08:51;;;;;;;4.93;3.88;;;;;;;;;;5043003;28;20036;-75
2021/07/11 00:11:36;;;;;;;4.30;3.50;;;;;;;;;;5047552;28;20567;-75
2021/07/11 00:14:20;;;;;;;4.72;3.63;;;;;;;;;;5063169;28;20059;-76
2021/07/11 00:17:05;;;;;;;4.47;3.55;;;;;;;;;;5062601;28;20653;-74
2021/07/11 00:19:50;;;;;;;5.00;3.80;;;;;;;;;;5058669;28;20130;-75
2021/07/11 00:22:34;;;;;;;5.28;3.70;;;;;;;;;;5065935;28;20467;-75
2021/07/11 00:25:19;;;;;;;4.63;3.75;;;;;;;;;;5067849;28;20042;-75
2021/07/11 00:28:04;;;;;;;5.10;3.88;;;;;;;;;;5066104;28;20480;-75
2021/07/11 00:30:49;;;;;;;5.03;3.70;;;;;;;;;;5043687;28;20036;-75
2021/07/11 00:33:33;;;;;;;5.63;3.53;;;;;;;;;;5066835;28;20043;-76
2021/07/11 00:36:18;;;;;;;4.22;3.63;;;;;;;;;;5066815;28;20063;-75
2021/07/11 00:39:02;;;;;;;4.60;3.75;;;;;;;;;;5066901;28;20485;-75
2021/07/11 00:41:47;;;;;;;5.22;3.72;;;;;;;;;;5067165;28;20075;-75
2021/07/11 00:44:32;;;;;;;4.03;3.42;;;;;;;;;;5066675;28;20083;-75
2021/07/11 00:47:16;;;;;;;5.15;3.95;;;;;;;;;;5064405;28;20135;-75
2021/07/11 00:50:01;;;;;;;4.65;3.55;;;;;;;;;;5066772;28;20043;-75
2021/07/11 00:52:45;;;;;;;4.35;3.95;;;;;;;;;;5049358;28;20097;-75
2021/07/11 00:55:29;;;;;;;4.15;3.50;;;;;;;;;;5063608;28;20044;-75
2021/07/11 00:58:14;;;;;;;5.15;3.75;;;;;;;;;;5066347;28;20047;-75
2021/07/11 01:00:58;;;;;;;5.95;4.10;;;;;;;;;;5067229;28;20091;-75
2021/07/11 01:03:46;;;;;;;4.80;3.80;;;;;;;;;;5046056;28;20051;-75
2021/07/11 01:06:32;;;;;;;4.35;3.92;;;;;;;;;;5066073;28;20451;-75
2021/07/11 01:09:20;;;;;;;4.35;3.90;;;;;;;;;;5065675;28;20256;-75
2021/07/11 01:12:05;;;;;;;3.83;3.42;;;;;;;;;;5052198;28;20040;-75
2021/07/11 01:14:51;;;;;;;4.90;3.85;;;;;;;;;;5065836;28;20043;-75
2021/07/11 01:17:36;;;;;;;4.40;3.58;;;;;;;;;;5060658;28;20124;-75
2021/07/11 01:20:39;;;;;;;4.53;3.80;;;;;;;;;;5065535;28;20081;-75
2021/07/11 01:23:45;;;;;;;5.60;3.85;;;;;;;;;;5066234;28;20039;-75
2021/07/11 01:26:30;;;;;;;5.53;3.55;;;;;;;;;;5065238;28;20059;-75
2021/07/11 01:29:15;;;;;;;5.05;3.63;;;;;;;;;;5063805;28;20417;-75
2021/07/11 01:31:59;;;;;;;4.70;3.70;;;;;;;;;;5066134;28;20085;-75
2021/07/11 01:34:44;;;;;;;4.95;3.70;;;;;;;;;;5066844;28;20040;-75
2021/07/11 01:37:29;;;;;;;4.20;3.60;;;;;;;;;;5067091;28;20515;-75
2021/07/11 01:40:14;;;;;;;4.65;3.80;;;;;;;;;;5066777;28;20830;-75
2021/07/11 01:42:59;;;;;;;4.47;3.65;;;;;;;;;;5065287;28;20050;-76
2021/07/11 01:45:44;;;;;;;4.30;3.70;;;;;;;;;;5049869;28;20116;-75
2021/07/11 01:48:30;;;;;;;4.15;3.75;;;;;;;;;;5065596;28;20044;-75
2021/07/11 01:51:15;;;;;;;4.28;3.60;;;;;;;;;;5060219;28;20071;-75
2021/07/11 01:54:00;;;;;;;4.55;3.70;;;;;;;;;;5065312;28;20059;-75
2021/07/11 01:56:44;;;;;;;4.47;3.85;;;;;;;;;;5065082;28;20043;-76
2021/07/11 01:59:29;;;;;;;4.70;3.53;;;;;;;;;;5054409;28;20040;-75
2021/07/11 02:02:13;;;;;;;5.00;3.55;;;;;;;;;;5065600;28;20062;-75
2021/07/11 02:04:58;;;;;;;4.80;3.78;;;;;;;;;;5067568;28;20622;-75
2021/07/11 02:07:43;;;;;;;4.30;3.67;;;;;;;;;;5068098;28;20038;-74
2021/07/11 02:10:27;;;;;;;5.35;3.83;;;;;;;;;;5067519;28;20042;-75
2021/07/11 02:13:12;;;;;;;5.65;4.00;;;;;;;;;;5069117;28;20055;-75
2021/07/11 02:16:00;;;;;;;5.03;3.63;;;;;;;;;;5068587;28;20051;-75
2021/07/11 02:18:44;;;;;;;4.97;3.67;;;;;;;;;;5042214;28;20124;-75
2021/07/11 02:21:29;;;;;;;5.90;4.00;;;;;;;;;;5057123;28;20716;-75
2021/07/11 02:24:14;;;;;;;5.38;3.90;;;;;;;;;;5053107;28;20055;-75
2021/07/11 02:26:58;;;;;;;5.20;3.92;;;;;;;;;;5064213;28;20035;-75
2021/07/11 02:29:44;;;;;;;6.22;4.32;;;;;;;;;;5064297;28;20051;-74
2021/07/11 02:32:31;;;;;;;4.28;3.63;;;;;;;;;;5045256;28;20143;-75
2021/07/11 02:35:16;;;;;;;5.40;3.70;;;;;;;;;;5047416;28;20130;-75
2021/07/11 02:38:00;;;;;;;5.05;3.85;;;;;;;;;;5067723;28;20043;-75
2021/07/11 02:40:45;;;;;;;5.95;4.00;;;;;;;;;;5044644;28;20064;-75
2021/07/11 02:43:29;;;;;;;4.05;3.63;;;;;;;;;;5041127;28;20056;-75
2021/07/11 02:46:17;;;;;;;4.40;3.53;;;;;;;;;;5064462;28;20865;-74
2021/07/11 02:49:02;;;;;;;5.20;3.63;;;;;;;;;;5066892;28;20086;-75
2021/07/11 02:51:47;;;;;;;4.85;3.42;;;;;;;;;;5067675;28;20059;-75
2021/07/11 02:54:33;;;;;;;4.30;3.50;;;;;;;;;;5040275;28;20366;-75
2021/07/11 02:57:18;;;;;;;4.35;3.90;;;;;;;;;;5064690;28;20119;-75
2021/07/11 03:00:05;;;;;;;5.10;3.53;;;;;;;;;;5067838;28;20507;-74
2021/07/11 03:02:49;;;;;;;3.85;3.42;;;;;;;;;;5066408;28;20516;-74
2021/07/11 03:05:34;;;;;;;5.10;3.40;;;;;;;;;;5067582;28;20402;-75
2021/07/11 03:08:18;;;;;;;5.28;3.42;;;;;;;;;;5053461;28;20569;-75
2021/07/11 03:11:02;;;;;;;4.25;3.55;;;;;;;;;;5050261;28;20066;-74
2021/07/11 03:13:47;;;;;;;4.22;3.75;;;;;;;;;;5065608;28;20101;-75
2021/07/11 03:16:31;;;;;;;4.38;3.30;;;;;;;;;;5047127;28;20097;-75
2021/07/11 03:19:16;;;;;;;5.18;3.47;;;;;;;;;;5053589;28;20074;-75
2021/07/11 03:22:00;;;;;;;4.32;3.45;;;;;;;;;;5045529;28;20144;-74
2021/07/11 03:24:45;;;;;;;3.75;3.30;;;;;;;;;;5065083;28;20059;-75
2021/07/11 03:27:29;;;;;;;4.05;3.53;;;;;;;;;;5065381;28;20479;-74
2021/07/11 03:30:16;;;;;;;4.68;3.25;;;;;;;;;;5066428;28;20816;-75
2021/07/11 03:33:01;;;;;;;3.65;3.17;;;;;;;;;;5065989;28;20044;-75
2021/07/11 03:35:56;;;;;;;4.38;3.30;;;;;;;;;;5066772;28;20048;-75
2021/07/11 03:38:42;;;;;;;5.70;3.13;;;;;;;;;;5066214;28;20044;-75
2021/07/11 03:41:28;;;;;;;3.38;3.03;;;;;;;;;;5051788;28;20089;-75
2021/07/11 03:44:13;;;;;;;3.75;3.25;;;;;;;;;;5065712;28;20539;-75
2021/07/11 03:46:57;;;;;;;4.85;3.10;;;;;;;;;;5038497;28;20084;-75
2021/07/11 03:49:42;;;;;;;4.53;3.05;;;;;;;;;;5033912;28;20048;-75
2021/07/11 03:52:26;;;;;;;3.58;2.92;;;;;;;;;;5057551;28;20058;-75
2021/07/11 03:55:11;;;;;;;3.10;2.80;;;;;;;;;;5065498;28;20071;-75
2021/07/11 03:57:56;;;;;;;4.28;3.17;;;;;;;;;;5060301;28;20401;-75
2021/07/11 04:00:40;;;;;;;3.88;2.85;;;;;;;;;;5065455;28;20035;-75
2021/07/11 04:03:25;;;;;;;3.92;3.08;;;;;;;;;;5065483;28;20459;-75
2021/07/11 04:06:10;;;;;;;3.70;3.17;;;;;;;;;;5048802;28;20409;-75
2021/07/11 04:08:56;;;;;;;3.63;2.90;;;;;;;;;;5036975;28;20641;-75
2021/07/11 04:11:41;;;;;;;3.92;2.80;;;;;;;;;;5064921;28;20078;-75
2021/07/11 04:14:25;;;;;;;3.70;3.30;;;;;;;;;;5065691;28;20049;-75
2021/07/11 04:17:10;;;;;;;4.38;3.00;;;;;;;;;;5066240;28;20043;-75
2021/07/11 04:19:56;;;;;;;3.92;3.25;;;;;;;;;;5065712;28;20035;-75
2021/07/11 04:22:40;;;;;;;3.78;3.00;;;;;;;;;;5045511;28;20102;-75
2021/07/11 04:25:25;;;;;;;3.55;2.83;;;;;;;;;;5064231;28;20119;-75
2021/07/11 04:28:09;;;;;;;4.28;3.15;;;;;;;;;;5065179;28;20079;-75
2021/07/11 04:30:54;;;;;;;3.55;3.00;;;;;;;;;;5064894;28;20405;-75
2021/07/11 04:33:39;;;;;;;4.45;3.30;;;;;;;;;;5060583;28;20089;-75
2021/07/11 04:36:23;;;;;;;3.15;2.85;;;;;;;;;;5051455;28;20035;-75
2021/07/11 04:39:08;;;;;;;3.30;3.00;;;;;;;;;;5066136;28;20074;-74
2021/07/11 04:41:53;;;;;;;3.90;3.08;;;;;;;;;;5041471;28;20044;-74
2021/07/11 04:44:38;;;;;;;3.55;3.10;;;;;;;;;;5055809;28;20048;-75
2021/07/11 04:47:22;;;;;;;4.05;2.88;;;;;;;;;;5051036;28;20036;-75
2021/07/11 04:50:07;;;;;;;3.70;2.90;;;;;;;;;;5063756;28;20047;-74
2021/07/11 04:52:52;;;;;;;3.83;3.00;;;;;;;;;;5048506;28;20073;-75
2021/07/11 04:55:37;;;;;;;3.15;2.85;;;;;;;;;;5063003;28;20039;-75
2021/07/11 04:58:21;;;;;;;4.55;3.10;;;;;;;;;;5041738;28;20040;-75
2021/07/11 05:01:06;;;;;;;4.03;2.92;;;;;;;;;;5039193;28;20120;-75
2021/07/11 05:03:50;;;;;;;3.97;2.97;;;;;;;;;;5061880;28;20043;-75
2021/07/11 05:06:35;;;;;;;4.63;3.03;;;;;;;;;;5062568;28;20074;-74
2021/07/11 05:09:20;;;;;;;3.50;2.88;;;;;;;;;;5066660;28;20064;-75
2021/07/11 05:12:04;;;;;;;3.45;2.88;;;;;;;;;;5066615;28;20094;-75
2021/07/11 05:14:49;;;;;;;3.92;2.80;;;;;;;;;;5045720;28;20599;-74
2021/07/11 05:17:34;;;;;;;3.33;3.03;;;;;;;;;;5067287;28;20131;-75
2021/07/11 05:20:18;;;;;;;3.70;2.95;;;;;;;;;;5062363;28;20683;-74
2021/07/11 05:23:03;;;;;;;3.08;2.70;;;;;;;;;;5066397;28;20496;-74
2021/07/11 05:25:47;;;;;;;3.92;3.03;;;;;;;;;;5046366;28;20297;-75
2021/07/11 05:28:32;;;;;;;3.33;3.00;;;;;;;;;;5067076;28;20117;-75
2021/07/11 05:31:16;;;;;;;3.88;2.88;;;;;;;;;;5050713;28;20492;-74
2021/07/11 05:34:01;;;;;;;4.68;3.00;;;;;;;;;;5050249;28;20116;-75
2021/07/11 05:36:46;;;;;;;3.47;3.05;;;;;;;;;;5065327;28;20427;-75
2021/07/11 05:39:30;;;;;;;3.75;3.10;;;;;;;;;;5066662;28;20048;-74
2021/07/11 05:42:15;;;;;;;3.75;3.05;;;;;;;;;;5066917;28;20056;-74
2021/07/11 05:45:00;;;;;;;4.50;3.03;;;;;;;;;;5066032;28;20479;-75
2021/07/11 05:47:46;;;;;;;5.45;3.20;;;;;;;;;;5066346;28;20569;-75
2021/07/11 05:50:31;;;;;;;3.40;3.10;;;;;;;;;;5066714;28;20059;-75
2021/07/11 05:53:16;;;;;;;3.70;3.10;;;;;;;;;;5046079;28;20046;-75
2021/07/11 05:56:00;;;;;;;4.05;3.03;;;;;;;;;;5040371;28;20126;-75
2021/07/11 05:58:45;;;;;;;3.95;3.40;;;;;;;;;;5063750;28;20123;-75
2021/07/11 06:01:29;;;;;;;3.13;2.80;;;;;;;;;;5066016;28;20075;-75
2021/07/11 06:04:14;;;;;;;3.58;2.97;;;;;;;;;;5066799;28;20499;-75
2021/07/11 06:06:58;;;;;;;4.93;2.75;;;;;;;;;;5064767;28;20036;-75
2021/07/11 06:09:43;;;;;;;3.67;2.80;;;;;;;;;;5063508;28;20048;-75
2021/07/11 06:12:28;;;;;;;4.30;3.00;;;;;;;;;;5044130;28;20051;-75
2021/07/11 06:15:12;;;;;;;3.78;2.80;;;;;;;;;;5065166;28;20039;-76
2021/07/11 06:17:57;;;;;;;3.90;3.30;;;;;;;;;;5065658;28;20546;-75
2021/07/11 06:20:42;;;;;;;5.93;3.00;;;;;;;;;;5050051;28;20030;-75
2021/07/11 06:23:27;;;;;;;3.22;2.92;;;;;;;;;;5065256;28;20077;-75
2021/07/11 06:26:11;;;;;;;3.67;3.30;;;;;;;;;;5053589;28;20109;-75
2021/07/11 06:28:57;;;;;;;4.20;3.38;;;;;;;;;;5060251;28;20507;-75
2021/07/11 06:31:41;;;;;;;3.75;2.83;;;;;;;;;;5051477;28;20413;-75
2021/07/11 06:34:26;;;;;;;3.28;2.97;;;;;;;;;;5050293;28;20055;-75
2021/07/11 06:37:10;;;;;;;3.47;3.08;;;;;;;;;;5064982;28;20043;-75
2021/07/11 06:39:55;;;;;;;3.70;3.00;;;;;;;;;;5064640;28;20054;-75
2021/07/11 06:42:40;;;;;;;3.75;3.03;;;;;;;;;;5056768;28;20071;-75
2021/07/11 06:45:25;;;;;;;3.72;3.08;;;;;;;;;;5051022;28;20124;-74
2021/07/11 06:48:09;;;;;;;3.38;2.88;;;;;;;;;;5066431;28;20066;-74
2021/07/11 06:50:55;;;;;;;3.63;2.78;;;;;;;;;;5047114;28;20040;-74
2021/07/11 06:53:39;;;;;;;3.08;2.67;;;;;;;;;;5064648;28;20071;-74
2021/07/11 06:56:24;;;;;;;3.47;3.00;;;;;;;;;;5043387;28;20059;-75
2021/07/11 06:59:08;;;;;;;3.80;3.10;;;;;;;;;;5064563;28;20127;-74
2021/07/11 07:01:52;;;;;;;4.28;3.13;;;;;;;;;;5064539;28;20082;-74
2021/07/11 07:04:37;;;;;;;4.15;2.85;;;;;;;;;;5059038;28;20047;-76
2021/07/11 07:07:21;;;;;;;3.58;2.63;;;;;;;;;;5073730;28;20052;-75
2021/07/11 07:10:08;;;;;;;3.20;2.90;;;;;;;;;;5064379;28;20532;-75
2021/07/11 07:12:52;;;;;;;3.50;2.97;;;;;;;;;;5064567;28;20085;-76
2021/07/11 07:15:37;;;;;;;3.63;2.97;;;;;;;;;;5064139;28;20047;-76
2021/07/11 07:18:22;;;;;;;2.97;2.67;;;;;;;;;;5050766;28;20113;-76
2021/07/11 07:21:07;;;;;;;3.28;2.97;;;;;;;;;;5050458;28;20090;-75
2021/07/11 07:23:51;;;;;;;4.57;3.08;;;;;;;;;;5063531;28;20519;-76
2021/07/11 07:26:36;;;;;;;4.35;2.83;;;;;;;;;;5063485;28;20059;-75
2021/07/11 07:29:21;;;;;;;3.40;3.10;;;;;;;;;;5049137;28;20055;-76
2021/07/11 07:32:05;;;;;;;3.67;2.88;;;;;;;;;;5064176;28;20054;-76
2021/07/11 07:34:50;;;;;;;3.40;2.67;;;;;;;;;;5063622;28;20028;-76
2021/07/11 07:37:34;;;;;;;4.20;3.10;;;;;;;;;;5064605;28;20081;-76
2021/07/11 07:40:20;;;;;;;3.50;3.08;;;;;;;;;;5031481;28;20614;-76
2021/07/11 07:43:05;;;;;;;4.10;2.90;;;;;;;;;;5063969;28;20408;-76
2021/07/11 07:45:49;;;;;;;4.47;3.20;;;;;;;;;;5059581;28;20039;-76
2021/07/11 07:48:34;;;;;;;3.83;3.28;;;;;;;;;;5038057;28;20062;-76
2021/07/11 07:51:19;;;;;;;3.75;3.00;;;;;;;;;;5055554;28;20587;-75
2021/07/11 07:54:03;;;;;;;2.95;2.65;;;;;;;;;;5053609;28;20043;-76
2021/07/11 07:56:48;;;;;;;4.07;2.83;;;;;;;;;;5060052;28;20110;-76
2021/07/11 07:59:32;;;;;;;3.35;2.90;;;;;;;;;;5062146;28;20515;-76
2021/07/11 08:02:17;;;;;;;3.38;2.65;;;;;;;;;;5061710;28;20109;-75
2021/07/11 08:05:02;;;;;;;4.22;3.20;;;;;;;;;;5063726;28;20425;-76
2021/07/11 08:07:46;;;;;;;3.40;2.83;;;;;;;;;;5063264;28;20082;-76
2021/07/11 08:10:31;;;;;;;3.65;2.78;;;;;;;;;;5045744;28;20888;-76
2021/07/11 08:13:15;;;;;;;3.78;2.58;;;;;;;;;;5044493;28;20128;-75
2021/07/11 08:16:00;;;;;;;3.72;2.70;;;;;;;;;;5062212;28;20047;-76
2021/07/11 08:18:44;;;;;;;4.30;2.92;;;;;;;;;;5061592;28;20040;-76
2021/07/11 08:21:29;;;;;;;4.10;3.10;;;;;;;;;;5063617;28;20082;-75
2021/07/11 08:24:14;;;;;;;3.60;2.80;;;;;;;;;;5045963;28;20091;-76
2021/07/11 08:26:58;;;;;;;4.18;2.97;;;;;;;;;;5058214;28;20039;-75
2021/07/11 08:29:43;;;;;;;4.05;2.83;;;;;;;;;;5062851;28;20040;-76
2021/07/11 08:32:27;;;;;;;4.10;2.60;;;;;;;;;;5063018;28;20070;-76
2021/07/11 08:35:12;;;;;;;3.83;3.10;;;;;;;;;;5064552;28;20042;-76
2021/07/11 08:37:56;;;;;;;4.22;3.15;;;;;;;;;;5059307;28;20102;-75
2021/07/11 08:40:41;;;;;;;3.47;3.03;;;;;;;;;;5043689;28;20059;-76
2021/07/11 08:43:26;;;;;;;3.40;2.70;;;;;;;;;;5065657;28;20101;-76
2021/07/11 08:46:11;;;;;;;4.00;2.75;;;;;;;;;;5052284;28;20065;-76
2021/07/11 08:48:56;;;;;;;3.83;2.92;;;;;;;;;;5067792;28;20039;-76
2021/07/11 08:51:40;;;;;;;4.45;3.40;;;;;;;;;;5064836;28;20044;-76
2021/07/11 08:54:25;;;;;;;3.33;2.55;;;;;;;;;;5065762;28;20039;-75
2021/07/11 08:57:10;;;;;;;3.58;2.90;;;;;;;;;;5059628;28;20044;-75
2021/07/11 08:59:55;;;;;;;3.72;2.55;;;;;;;;;;5051538;28;20075;-75
2021/07/11 09:02:40;;;;;;;3.15;2.40;;;;;;;;;;5059826;28;20090;-76
2021/07/11 09:05:27;;;;;;;3.25;2.67;;;;;;;;;;5051871;28;20070;-76
2021/07/11 09:08:12;;;;;;;3.45;2.90;;;;;;;;;;5066536;28;20035;-75
2021/07/11 09:11:02;;;;;;;3.35;2.65;;;;;;;;;;5067569;28;20043;-76
2021/07/11 09:13:50;;;;;;;3.08;2.60;;;;;;;;;;5062497;28;20479;-75
2021/07/11 09:16:42;;;;;;;3.17;2.65;;;;;;;;;;5066874;28;20118;-75
2021/07/11 09:19:28;;;;;;;3.40;2.63;;;;;;;;;;5061225;28;20118;-76
2021/07/11 09:22:16;;;;;;;2.88;2.58;;;;;;;;;;5051668;28;20043;-75
2021/07/11 09:25:00;;;;;;;2.97;2.60;;;;;;;;;;5052091;28;20048;-75
2021/07/11 09:27:45;;;;;;;3.88;2.80;;;;;;;;;;5053319;28;20044;-75
2021/07/11 09:30:29;;;;;;;3.28;2.35;;;;;;;;;;5052009;28;20043;-75
2021/07/11 09:33:18;;;;;;;3.80;2.70;;;;;;;;;;5065062;28;20117;-75
2021/07/11 09:36:06;;;;;;;2.95;2.53;;;;;;;;;;5050687;28;20051;-75
2021/07/11 09:38:51;;;;;;;2.70;2.30;;;;;;;;;;5050033;28;20085;-76
2021/07/11 09:41:37;;;;;;;4.20;2.38;;;;;;;;;;5049599;28;20070;-75
2021/07/11 09:44:21;;;;;;;3.13;2.60;;;;;;;;;;5062336;28;20101;-76
2021/07/11 09:47:32;;;;;;;3.90;2.85;;;;;;;;;;5061423;28;20162;-76
2021/07/11 09:50:21;;;;;;;2.95;2.33;;;;;;;;;;5062907;28;20120;-75
2021/07/11 09:53:06;;;;;;;3.17;2.75;;;;;;;;;;5063338;28;20039;-76
2021/07/11 09:55:51;;;;;;;2.95;2.38;;;;;;;;;;5061933;28;20086;-75
2021/07/11 09:58:35;;;;;;;3.00;2.67;;;;;;;;;;5049201;28;20042;-76
2021/07/11 10:01:20;;;;;;;2.80;2.45;;;;;;;;;;5064170;28;20523;-76
2021/07/11 10:04:05;;;;;;;3.83;2.78;;;;;;;;;;5062327;28;20051;-76
2021/07/11 10:06:49;;;;;;;3.42;2.80;;;;;;;;;;5066034;28;20086;-76
2021/07/11 10:09:34;;;;;;;3.90;2.78;;;;;;;;;;5052031;28;20090;-76
2021/07/11 10:12:19;;;;;;;4.45;2.60;;;;;;;;;;5061071;28;20120;-76
2021/07/11 10:15:04;;;;;;;2.72;2.40;;;;;;;;;;5049105;28;20067;-76
2021/07/11 10:17:49;;;;;;;3.33;2.70;;;;;;;;;;5065406;28;20102;-76
2021/07/11 10:20:35;;;;;;;3.03;2.53;;;;;;;;;;5065624;28;20039;-76
2021/07/11 10:23:24;;;;;;;2.95;2.65;;;;;;;;;;5050997;28;20114;-75
2021/07/11 10:26:13;;;;;;;2.90;2.40;;;;;;;;;;5058452;28;20174;-76
2021/07/11 10:28:58;;;;;;;3.10;2.78;;;;;;;;;;5060660;28;20039;-75
2021/07/11 10:31:43;;;;;;;3.10;2.60;;;;;;;;;;5062025;28;20114;-76
2021/07/11 10:34:30;;;;;;;3.90;2.83;;;;;;;;;;5042457;28;20139;-76
2021/07/11 10:37:16;;;;;;;3.25;2.72;;;;;;;;;;5057818;28;20043;-76
2021/07/11 10:40:07;;;;;;;3.63;3.05;;;;;;;;;;5052933;28;20067;-75
2021/07/11 10:42:52;;;;;;;5.18;2.92;;;;;;;;;;5056136;28;20044;-75
2021/07/11 10:45:44;;;;;;;4.03;2.75;;;;;;;;;;5041314;28;20085;-76
2021/07/11 10:48:28;;;;;;;2.80;2.50;;;;;;;;;;5060538;28;20093;-75
2021/07/11 10:51:18;;;;;;;3.30;3.00;;;;;;;;;;5063586;28;20047;-74
2021/07/11 10:54:02;;;;;;;3.63;2.80;;;;;;;;;;5058438;28;20357;-75
2021/07/11 10:56:47;;;;;;;3.20;2.72;;;;;;;;;;5052663;28;20090;-75
2021/07/11 10:59:33;;;;;;;3.30;2.85;;;;;;;;;;5052760;28;20043;-75
2021/07/11 11:02:18;;;;;;;3.38;2.83;;;;;;;;;;5045746;28;20067;-75
2021/07/11 11:05:03;;;;;;;3.80;2.90;;;;;;;;;;5058446;28;20047;-74
2021/07/11 11:07:53;;;;;;;5.18;3.17;;;;;;;;;;5061788;28;20043;-75
2021/07/11 11:10:38;;;;;;;3.97;2.70;;;;;;;;;;5060083;28;20903;-75
2021/07/11 11:13:25;;;;;;;3.83;3.00;;;;;;;;;;5044591;28;20055;-75
2021/07/11 11:16:14;;;;;;;4.32;2.90;;;;;;;;;;5058548;28;20039;-75
2021/07/11 11:18:59;;;;;;;3.20;2.90;;;;;;;;;;5043652;28;20031;-74
2021/07/11 11:21:43;;;;;;;4.43;2.95;;;;;;;;;;5054238;28;20035;-74
2021/07/11 11:24:27;;;;;;;3.72;2.80;;;;;;;;;;5043166;28;20481;-75
2021/07/11 11:27:12;;;;;;;3.63;2.70;;;;;;;;;;5054403;28;21119;-75
2021/07/11 11:30:07;;;;;;;4.20;2.78;;;;;;;;;;5059677;28;20040;-75
2021/07/11 11:32:55;;;;;;;3.75;2.90;;;;;;;;;;5058254;28;20393;-74
2021/07/11 11:35:44;;;;;;;3.20;2.90;;;;;;;;;;5055393;28;20067;-75
2021/07/11 11:38:28;;;;;;;4.65;2.60;;;;;;;;;;5054167;28;20079;-75
2021/07/11 11:41:17;;;;;;;3.70;2.88;;;;;;;;;;5043497;28;20136;-75
2021/07/11 11:44:12;;;;;;;3.17;2.72;;;;;;;;;;5041676;28;20052;-75
2021/07/11 11:46:57;;;;;;;3.78;2.60;;;;;;;;;;5041056;28;20082;-75
2021/07/11 11:49:42;;;;;;;3.40;3.00;;;;;;;;;;5040139;28;20068;-75
2021/07/11 11:52:27;;;;;;;4.15;2.80;;;;;;;;;;5043944;28;20067;-75
2021/07/11 11:55:14;;;;;;;3.55;2.85;;;;;;;;;;5055559;28;20063;-76
2021/07/11 11:58:06;;;;;;;3.55;3.15;;;;;;;;;;5056435;28;20163;-75
2021/07/11 12:00:58;;;;;;;4.30;3.00;;;;;;;;;;5051155;28;20031;-75
2021/07/11 12:03:44;;;;;;;3.58;2.95;;;;;;;;;;5058738;28;20060;-75
2021/07/11 12:06:29;;;;;;;4.03;3.40;;;;;;;;;;5039927;28;20040;-76
2021/07/11 12:09:13;;;;;;;4.70;3.22;;;;;;;;;;5044399;28;20093;-75
2021/07/11 12:11:59;;;;;;;4.22;3.13;;;;;;;;;;5052555;28;20503;-74
2021/07/11 12:14:43;;;;;;;5.10;3.30;;;;;;;;;;5053791;28;20031;-75
2021/07/11 12:17:32;;;;;;;4.07;2.97;;;;;;;;;;5037046;28;20071;-75
2021/07/11 12:20:20;;;;;;;3.78;3.22;;;;;;;;;;5054042;28;20045;-75
2021/07/11 12:23:11;;;;;;;4.40;2.88;;;;;;;;;;5055534;28;20097;-74
2021/07/11 12:26:00;;;;;;;4.17;3.13;;;;;;;;;;5054669;28;20539;-75
2021/07/11 12:28:51;;;;;;;4.50;3.25;;;;;;;;;;5055030;28;20330;-75
2021/07/11 12:31:36;;;;;;;4.28;3.17;;;;;;;;;;5054221;28;20541;-75
2021/07/11 12:34:21;;;;;;;3.83;2.70;;;;;;;;;;5054133;28;20127;-75
2021/07/11 12:37:07;;;;;;;5.03;3.15;;;;;;;;;;5054468;28;20400;-75
2021/07/11 12:39:52;;;;;;;3.53;2.95;;;;;;;;;;5054367;28;20047;-75
2021/07/11 12:42:36;;;;;;;4.22;3.10;;;;;;;;;;5052848;28;20048;-75
2021/07/11 12:45:21;;;;;;;4.82;3.03;;;;;;;;;;5055747;28;20043;-75
2021/07/11 12:48:05;;;;;;;5.47;3.20;;;;;;;;;;5034364;28;20115;-75
2021/07/11 12:50:50;;;;;;;3.90;2.97;;;;;;;;;;5057718;28;20086;-75
2021/07/11 12:53:35;;;;;;;3.80;2.65;;;;;;;;;;5048939;28;20093;-75
2021/07/11 12:56:21;;;;;;;4.68;2.70;;;;;;;;;;5060016;28;20504;-75
2021/07/11 12:59:06;;;;;;;3.20;2.90;;;;;;;;;;5059377;28;20137;-75
2021/07/11 13:01:59;;;;;;;3.92;2.80;;;;;;;;;;5043623;28;20075;-75
2021/07/11 13:04:44;;;;;;;5.35;3.28;;;;;;;;;;5051150;28;20043;-75
2021/07/11 13:07:30;;;;;;;4.03;2.70;;;;;;;;;;5056867;28;20094;-75
2021/07/11 13:10:16;;;;;;;3.63;2.85;;;;;;;;;;5062628;28;20035;-75
2021/07/11 13:13:00;;;;;;;4.55;3.08;;;;;;;;;;5062672;28;20090;-74
2021/07/11 13:15:44;;;;;;;3.47;2.75;;;;;;;;;;5059333;28;20902;-75
2021/07/11 13:18:29;;;;;;;3.97;2.80;;;;;;;;;;5051997;28;20044;-75
2021/07/11 13:21:14;;;;;;;3.90;2.70;;;;;;;;;;5044340;28;20574;-75
2021/07/11 13:23:58;;;;;;;4.88;2.80;;;;;;;;;;5060216;28;20071;-75
2021/07/11 13:26:43;;;;;;;4.22;2.45;;;;;;;;;;5045654;28;20821;-74
2021/07/11 13:29:28;;;;;;;4.18;2.50;;;;;;;;;;5052877;28;20043;-74
2021/07/11 13:32:12;;;;;;;4.40;2.75;;;;;;;;;;5053860;28;20416;-75
2021/07/11 13:34:57;;;;;;;3.50;2.70;;;;;;;;;;5064488;28;20100;-75
2021/07/11 13:37:41;;;;;;;3.58;2.60;;;;;;;;;;5062130;28;20036;-75
2021/07/11 13:40:26;;;;;;;3.00;2.13;;;;;;;;;;5064833;28;20094;-75
2021/07/11 13:43:10;;;;;;;3.53;2.40;;;;;;;;;;5064613;28;20047;-75
2021/07/11 13:45:55;;;;;;;4.13;2.65;;;;;;;;;;5062184;28;20035;-75
2021/07/11 13:48:40;;;;;;;3.28;2.30;;;;;;;;;;5065721;28;20496;-75
2021/07/11 13:51:24;;;;;;;2.70;2.25;;;;;;;;;;5051125;28;20408;-76
2021/07/11 13:54:09;;;;;;;2.95;2.15;;;;;;;;;;5066319;28;20075;-75
2021/07/11 13:56:53;;;;;;;3.00;2.28;;;;;;;;;;5047992;28;20162;-75
2021/07/11 13:59:38;;;;;;;2.65;2.10;;;;;;;;;;5064171;28;20047;-75
2021/07/11 14:02:26;;;;;;;3.95;2.40;;;;;;;;;;5064825;28;20401;-75
2021/07/11 14:05:11;;;;;;;2.88;2.20;;;;;;;;;;5047101;28;20094;-76
2021/07/11 14:07:56;;;;;;;2.40;1.90;;;;;;;;;;5066445;28;20713;-75
2021/07/11 14:10:40;;;;;;;4.07;2.50;;;;;;;;;;5064206;28;20067;-75
2021/07/11 14:13:25;;;;;;;3.30;2.17;;;;;;;;;;5065874;28;20108;-76
2021/07/11 14:16:11;;;;;;;2.42;2.05;;;;;;;;;;5063487;28;20064;-76
2021/07/11 14:18:56;;;;;;;3.15;2.50;;;;;;;;;;5059048;28;20583;-76
2021/07/11 14:21:40;;;;;;;2.90;2.10;;;;;;;;;;5065983;28;20043;-76
2021/07/11 14:24:25;;;;;;;2.83;1.90;;;;;;;;;;5065221;28;20097;-76
2021/07/11 14:27:10;;;;;;;3.33;1.98;;;;;;;;;;5061212;28;20044;-76
2021/07/11 14:29:54;;;;;;;3.85;2.17;;;;;;;;;;5060264;28;20047;-76
2021/07/11 14:32:39;;;;;;;2.50;2.00;;;;;;;;;;5043757;28;20162;-76
2021/07/11 14:35:24;;;;;;;3.88;2.10;;;;;;;;;;5062073;28;20047;-76
2021/07/11 14:38:08;;;;;;;2.53;1.73;;;;;;;;;;5048408;28;20039;-75
2021/07/11 14:40:53;;;;;;;3.42;1.90;;;;;;;;;;5062032;28;20499;-75
2021/07/11 14:43:38;;;;;;;2.33;1.70;;;;;;;;;;5064119;28;20050;-76
2021/07/11 14:46:22;;;;;;;2.35;1.80;;;;;;;;;;5060029;28;20086;-76
2021/07/11 14:49:07;;;;;;;3.38;2.20;;;;;;;;;;5034337;28;20051;-75
2021/07/11 14:51:51;;;;;;;3.15;1.77;;;;;;;;;;5049237;28;20044;-74
2021/07/11 14:54:36;;;;;;;3.30;1.90;;;;;;;;;;5065959;28;20043;-75
2021/07/11 14:57:21;;;;;;;2.92;2.20;;;;;;;;;;5058457;28;20047;-74
2021/07/11 15:00:09;;;;;;;4.20;2.10;;;;;;;;;;5041913;28;20082;-75
2021/07/11 15:02:53;;;;;;;2.90;1.92;;;;;;;;;;5055443;28;20047;-75
2021/07/11 15:05:38;;;;;;;2.42;1.75;;;;;;;;;;5064713;28;20036;-75
2021/07/11 15:08:25;;;;;;;2.42;1.98;;;;;;;;;;5049793;28;20047;-76
2021/07/11 15:11:10;;;;;;;3.67;2.15;;;;;;;;;;5064104;28;20439;-76
2021/07/11 15:13:54;;;;;;;3.60;2.20;;;;;;;;;;5065703;28;20504;-76
2021/07/11 15:16:39;;;;;;;3.28;2.15;;;;;;;;;;5047624;28;20048;-76
2021/07/11 15:19:26;;;;;;;3.67;2.10;;;;;;;;;;5055123;28;20124;-75
2021/07/11 15:22:11;;;;;;;3.78;2.72;;;;;;;;;;5059719;28;20066;-75
2021/07/11 15:24:55;;;;;;;4.22;2.40;;;;;;;;;;5062446;28;20086;-75
2021/07/11 15:27:40;;;;;;;3.45;2.22;;;;;;;;;;5056904;28;20421;-76
2021/07/11 15:30:24;;;;;;;3.85;2.40;;;;;;;;;;5043622;28;20042;-75
2021/07/11 15:33:15;;;;;;;3.95;2.03;;;;;;;;;;5064964;28;20047;-75
2021/07/11 15:36:00;;;;;;;3.72;2.17;;;;;;;;;;5059768;28;20357;-75
2021/07/11 15:38:44;;;;;;;4.32;2.22;;;;;;;;;;5044751;28;20565;-75
2021/07/11 15:41:29;;;;;;;4.13;2.30;;;;;;;;;;5062721;28;20073;-75
2021/07/11 15:44:13;;;;;;;3.70;2.50;;;;;;;;;;5063494;28;20082;-74
2021/07/11 15:46:58;;;;;;;3.00;2.28;;;;;;;;;;5056355;28;20538;-76
2021/07/11 15:49:42;;;;;;;4.15;2.50;;;;;;;;;;5063325;28;20043;-75
2021/07/11 15:52:27;;;;;;;3.20;2.45;;;;;;;;;;5062639;28;20132;-77
2021/07/11 15:55:12;;;;;;;3.80;2.45;;;;;;;;;;5063879;28;20056;-75
2021/07/11 15:57:56;;;;;;;3.85;2.67;;;;;;;;;;5059560;28;20036;-74
2021/07/11 16:00:41;;;;;;;3.78;2.47;;;;;;;;;;5062768;28;20416;-76
2021/07/11 16:03:26;;;;;;;3.55;2.78;;;;;;;;;;5042637;28;20047;-75
2021/07/11 16:06:11;;;;;;;3.50;2.90;;;;;;;;;;5038729;28;20090;-76
2021/07/11 16:08:55;;;;;;;4.95;2.63;;;;;;;;;;5055957;28;20094;-75
2021/07/11 16:11:40;;;;;;;4.00;2.85;;;;;;;;;;5048321;28;20123;-75
2021/07/11 16:14:25;;;;;;;4.38;2.83;;;;;;;;;;5060373;28;20040;-75
2021/07/11 16:17:09;;;;;;;5.45;2.80;;;;;;;;;;5062731;28;20035;-75
2021/07/11 16:19:54;;;;;;;4.60;2.80;;;;;;;;;;5060064;28;20697;-74
2021/07/11 16:22:39;;;;;;;5.40;3.05;;;;;;;;;;5049252;28;20118;-75
2021/07/11 16:25:24;;;;;;;4.57;2.78;;;;;;;;;;5062412;28;20116;-75
2021/07/11 16:28:08;;;;;;;4.00;2.80;;;;;;;;;;5055697;28;20059;-75
2021/07/11 16:30:53;;;;;;;3.83;2.92;;;;;;;;;;5064668;28;20557;-75